createdAt,value
2023-04-18T00:00:57.280Z,13.50
2023-04-18T00:03:26.694Z,10.50
2023-04-18T00:05:55.221Z,11.68
2023-04-18T00:08:23.692Z,14.30
2023-04-18T00:10:54.134Z,13.05
2023-04-18T00:13:22.921Z,12.70
2023-04-18T00:15:54.175Z,11.52
2023-04-18T00:18:26.602Z,12.57
2023-04-18T00:20:55.113Z,12.43
2023-04-18T00:23:23.520Z,14.05
2023-04-18T00:25:52.969Z,12.00
2023-04-18T00:28:21.372Z,11.55
2023-04-18T00:30:50.486Z,14.63
2023-04-18T00:33:21.043Z,12.73
2023-04-18T00:35:49.533Z,12.95
2023-04-18T00:38:18.058Z,12.63
2023-04-18T00:40:46.538Z,12.32
2023-04-18T00:43:17.151Z,14.32
2023-04-18T00:45:45.738Z,16.00
2023-04-18T00:48:14.205Z,13.88
2023-04-18T00:50:42.859Z,14.97
2023-04-18T00:53:11.877Z,13.82
2023-04-18T00:55:40.659Z,14.32
2023-04-18T00:58:10.036Z,14.70
2023-04-18T01:00:39.522Z,15.85
2023-04-18T01:03:08.440Z,17.73
2023-04-18T01:05:37.283Z,15.70
2023-04-18T01:08:06.189Z,14.23
2023-04-18T01:10:37.260Z,14.15
2023-04-18T01:13:11.688Z,14.88
2023-04-18T01:15:43.721Z,14.43
2023-04-18T01:18:13.232Z,16.92
2023-04-18T01:20:45.828Z,17.75
2023-04-18T01:23:14.387Z,16.15
2023-04-18T01:25:44.378Z,17.52
2023-04-18T01:28:12.892Z,16.27
2023-04-18T01:30:41.552Z,17.70
2023-04-18T01:33:10.158Z,19.95
2023-04-18T01:35:38.726Z,17.90
2023-04-18T01:38:07.325Z,18.17
2023-04-18T01:40:35.772Z,18.53
2023-04-18T01:43:05.407Z,18.13
2023-04-18T01:45:33.916Z,18.90
2023-04-18T01:48:03.494Z,20.80
2023-04-18T01:50:31.950Z,18.67
2023-04-18T01:53:00.436Z,19.80
2023-04-18T01:55:28.876Z,19.92
2023-04-18T01:57:57.557Z,19.38
2023-04-18T02:00:28.351Z,17.98
2023-04-18T02:02:56.926Z,18.05
2023-04-18T02:05:27.068Z,18.73
2023-04-18T02:07:55.544Z,18.92
2023-04-18T02:10:23.972Z,19.75
2023-04-18T02:12:52.357Z,19.17
2023-04-18T02:15:21.112Z,21.80
2023-04-18T02:17:50.576Z,19.27
2023-04-18T02:20:18.989Z,22.25
2023-04-18T02:22:47.912Z,19.08
2023-04-18T02:25:16.564Z,20.48
2023-04-18T02:27:45.033Z,19.63
2023-04-18T02:30:13.563Z,20.33
2023-04-18T02:32:42.071Z,20.75
2023-04-18T02:35:12.606Z,20.63
2023-04-18T02:37:41.409Z,21.23
2023-04-18T02:40:10.792Z,18.98
2023-04-18T02:42:39.199Z,21.00
2023-04-18T02:45:08.629Z,25.48
2023-04-18T02:47:46.929Z,20.60
2023-04-18T02:50:19.699Z,21.27
2023-04-18T02:52:48.262Z,22.45
2023-04-18T02:55:18.479Z,22.07
2023-04-18T02:57:47.803Z,22.33
2023-04-18T03:00:34.557Z,22.10
2023-04-18T03:03:16.894Z,21.73
2023-04-18T03:06:07.649Z,21.27
2023-04-18T03:08:36.138Z,19.43
2023-04-18T03:11:04.845Z,21.20
2023-04-18T03:13:34.732Z,19.98
2023-04-18T03:16:03.523Z,21.45
2023-04-18T03:18:33.421Z,20.98
2023-04-18T03:21:01.982Z,23.40
2023-04-18T03:23:33.493Z,19.17
2023-04-18T03:26:06.485Z,23.05
2023-04-18T03:28:36.898Z,22.23
2023-04-18T03:31:05.540Z,21.50
2023-04-18T03:33:39.271Z,22.10
2023-04-18T03:36:12.057Z,22.42
2023-04-18T03:38:43.130Z,22.27
2023-04-18T03:41:11.760Z,21.38
2023-04-18T03:43:40.541Z,22.38
2023-04-18T03:46:08.974Z,24.57
2023-04-18T03:48:38.649Z,25.02
2023-04-18T03:51:12.679Z,23.67
2023-04-18T03:53:48.030Z,22.02
2023-04-18T03:56:18.414Z,22.00
2023-04-18T03:58:52.632Z,23.43
2023-04-18T04:01:22.668Z,23.02
2023-04-18T04:03:53.599Z,22.60
2023-04-18T04:06:22.584Z,23.50
2023-04-18T04:08:52.117Z,23.33
2023-04-18T04:11:25.134Z,24.90
2023-04-18T04:13:54.462Z,22.65
2023-04-18T04:16:27.682Z,25.65
2023-04-18T04:18:57.120Z,25.50
2023-04-18T04:21:32.415Z,24.80
2023-04-18T04:24:02.980Z,27.10
2023-04-18T04:26:36.860Z,22.35
2023-04-18T04:29:11.787Z,29.90
2023-04-18T04:31:41.195Z,26.08
2023-04-18T04:34:09.744Z,26.75
2023-04-18T04:36:38.128Z,27.00
2023-04-18T04:39:09.267Z,21.90
2023-04-18T04:41:57.161Z,23.67
2023-04-18T04:44:28.383Z,24.15
2023-04-18T04:46:56.932Z,25.95
2023-04-18T04:49:31.400Z,23.13
2023-04-18T04:52:01.411Z,24.77
2023-04-18T04:54:31.912Z,27.50
2023-04-18T04:57:01.614Z,24.75
2023-04-18T04:59:30.183Z,23.52
2023-04-18T05:01:58.939Z,25.30
2023-04-18T05:04:27.737Z,26.83
2023-04-18T05:06:56.419Z,26.42
2023-04-18T05:09:24.901Z,23.75
2023-04-18T05:11:54.678Z,27.83
2023-04-18T05:14:23.201Z,26.97
2023-04-18T05:16:53.457Z,27.40
2023-04-18T05:19:22.326Z,25.00
2023-04-18T05:21:51.181Z,27.45
2023-04-18T05:24:20.055Z,71.35
2023-04-18T05:26:48.935Z,36.57
2023-04-18T05:29:18.537Z,46.25
2023-04-18T05:31:47.294Z,27.77
2023-04-18T05:34:16.018Z,26.23
2023-04-18T05:36:44.754Z,27.75
2023-04-18T05:39:13.569Z,25.77
2023-04-18T05:41:42.952Z,30.10
2023-04-18T05:44:12.490Z,24.73
2023-04-18T05:46:42.121Z,25.52
2023-04-18T05:49:10.945Z,26.70
2023-04-18T05:51:39.453Z,26.20
2023-04-18T05:54:07.789Z,24.55
2023-04-18T05:56:36.210Z,24.83
2023-04-18T05:59:06.609Z,22.90
2023-04-18T06:01:35.043Z,26.42
2023-04-18T06:04:04.899Z,27.37
2023-04-18T06:06:33.439Z,24.83
2023-04-18T06:09:01.902Z,25.52
2023-04-18T06:11:33.563Z,24.73
2023-04-18T06:14:02.264Z,26.92
2023-04-18T06:16:30.919Z,25.47
2023-04-18T06:19:01.220Z,28.52
2023-04-18T06:21:30.957Z,24.85
2023-04-18T06:24:01.388Z,27.85
2023-04-18T06:26:30.570Z,22.45
2023-04-18T06:28:59.255Z,25.57
2023-04-18T06:31:27.953Z,28.67
2023-04-18T06:33:57.152Z,25.98
2023-04-18T06:36:26.856Z,27.92
2023-04-18T06:38:58.911Z,25.65
2023-04-18T06:41:27.447Z,26.67
2023-04-18T06:44:03.645Z,28.55
2023-04-18T06:46:33.378Z,27.67
2023-04-18T06:49:04.018Z,22.33
2023-04-18T06:51:33.710Z,27.15
2023-04-18T06:54:11.781Z,31.40
2023-04-18T06:56:40.457Z,28.88
2023-04-18T06:59:09.093Z,24.75
2023-04-18T07:01:42.520Z,23.83
2023-04-18T07:04:11.586Z,24.15
2023-04-18T07:06:40.518Z,26.13
2023-04-18T07:09:10.333Z,24.15
2023-04-18T07:11:39.528Z,24.13
2023-04-18T07:14:08.075Z,24.77
2023-04-18T07:16:39.823Z,23.05
2023-04-18T07:19:08.409Z,21.97
2023-04-18T07:21:37.710Z,27.08
2023-04-18T07:24:06.328Z,23.80
2023-04-18T07:26:35.971Z,25.33
2023-04-18T07:29:04.460Z,22.90
2023-04-18T07:31:33.037Z,26.90
2023-04-18T07:34:02.631Z,22.88
2023-04-18T07:39:48.831Z,23.85
2023-04-18T07:42:18.965Z,23.85
2023-04-18T07:44:47.978Z,25.60
2023-04-18T07:47:16.481Z,22.17
2023-04-18T07:49:44.954Z,22.15
2023-04-18T07:52:13.326Z,21.70
2023-04-18T07:54:43.313Z,22.98
2023-04-18T07:57:11.932Z,20.70
2023-04-18T07:59:42.109Z,22.08
2023-04-18T08:02:10.694Z,22.35
2023-04-18T08:04:39.470Z,22.23
2023-04-18T08:07:08.040Z,23.08
2023-04-18T08:09:39.045Z,22.07
2023-04-18T08:12:09.235Z,22.83
2023-04-18T08:14:37.911Z,23.90
2023-04-18T08:17:07.565Z,21.63
2023-04-18T08:19:36.149Z,15.70
2023-04-18T08:22:10.670Z,20.43
2023-04-18T08:24:39.384Z,18.25
2023-04-18T08:27:08.225Z,16.95
2023-04-18T08:29:36.824Z,22.05
2023-04-18T08:32:09.664Z,19.25
2023-04-18T08:34:40.855Z,17.90
2023-04-18T08:37:14.946Z,17.42
2023-04-18T08:39:46.113Z,18.02
2023-04-18T08:42:19.418Z,19.33
2023-04-18T08:44:48.001Z,19.08
2023-04-18T08:47:17.567Z,17.53
2023-04-18T08:49:46.782Z,22.00
2023-04-18T08:52:16.799Z,19.17
2023-04-18T08:55:04.033Z,19.98
2023-04-18T08:57:33.373Z,19.35
2023-04-18T09:00:02.094Z,20.20
2023-04-18T09:02:42.916Z,19.10
2023-04-18T09:05:13.540Z,19.65
2023-04-18T09:07:45.389Z,17.25
2023-04-18T09:10:15.512Z,17.95
2023-04-18T09:12:50.599Z,18.97
2023-04-18T09:15:24.545Z,18.38
2023-04-18T09:17:56.466Z,18.17
2023-04-18T09:20:35.102Z,17.38
2023-04-18T09:23:05.035Z,18.70
2023-04-18T09:25:36.142Z,22.37
2023-04-18T09:28:09.046Z,17.48
2023-04-18T09:30:39.450Z,15.18
2023-04-18T09:33:11.061Z,16.98
2023-04-18T09:35:39.838Z,15.70
2023-04-18T09:38:09.662Z,15.03
2023-04-18T09:40:41.482Z,15.07
2023-04-18T09:43:20.656Z,16.30
2023-04-18T09:45:52.052Z,14.00
2023-04-18T09:48:22.922Z,18.77
2023-04-18T09:50:51.855Z,15.33
2023-04-18T09:53:21.469Z,17.08
2023-04-18T09:55:56.132Z,14.48
2023-04-18T09:58:29.498Z,14.07
2023-04-18T10:00:58.353Z,16.60
2023-04-18T10:03:43.256Z,15.90
2023-04-18T10:06:13.214Z,13.50
2023-04-18T10:08:43.279Z,14.52
2023-04-18T10:11:14.600Z,16.13
2023-04-18T10:13:46.441Z,14.85
2023-04-18T10:16:16.988Z,15.20
2023-04-18T10:18:46.904Z,15.43
2023-04-18T10:21:15.578Z,18.45
2023-04-18T10:23:45.926Z,15.43
2023-04-18T10:26:14.396Z,15.90
2023-04-18T10:28:54.584Z,13.97
2023-04-18T10:31:23.883Z,15.00
2023-04-18T10:34:04.727Z,15.80
2023-04-18T10:36:34.710Z,15.18
2023-04-18T10:39:22.820Z,18.05
2023-04-18T10:41:51.830Z,16.43
2023-04-18T10:44:24.272Z,15.55
2023-04-18T10:47:32.294Z,15.20
2023-04-18T10:50:07.061Z,15.18
2023-04-18T10:52:36.130Z,13.43
2023-04-18T10:55:17.577Z,13.73
2023-04-18T10:57:47.496Z,17.98
2023-04-18T11:00:23.680Z,17.20
2023-04-18T11:02:55.988Z,15.00
2023-04-18T11:05:28.114Z,14.20
2023-04-18T11:08:00.164Z,13.80
2023-04-18T11:10:30.517Z,13.55
2023-04-18T11:13:04.591Z,13.75
2023-04-18T11:15:33.361Z,12.80
2023-04-18T11:18:02.907Z,13.30
2023-04-18T11:20:39.511Z,11.97
2023-04-18T11:23:17.161Z,11.27
2023-04-18T11:25:45.934Z,11.23
2023-04-18T11:28:16.760Z,15.13
2023-04-18T11:30:45.178Z,14.27
2023-04-18T11:33:14.423Z,13.30
2023-04-18T11:35:45.021Z,14.52
2023-04-18T11:38:16.638Z,11.55
2023-04-18T11:40:58.763Z,11.73
2023-04-18T11:43:27.319Z,15.48
2023-04-18T11:45:58.077Z,14.13
2023-04-18T11:48:36.181Z,22.67
2023-04-18T11:51:33.586Z,17.75
2023-04-18T11:54:02.169Z,12.52
2023-04-18T11:56:30.814Z,15.32
2023-04-18T11:59:00.603Z,14.27
2023-04-18T12:01:32.117Z,15.13
2023-04-18T12:04:21.589Z,13.85
2023-04-18T12:06:58.633Z,21.05
2023-04-18T12:09:27.075Z,12.95
2023-04-18T12:11:59.217Z,14.37
2023-04-18T12:14:27.747Z,13.48
2023-04-18T12:17:20.407Z,12.50
2023-04-18T12:19:50.007Z,14.75
2023-04-18T12:22:28.681Z,14.40
2023-04-18T12:25:20.340Z,15.07
2023-04-18T12:27:57.865Z,14.38
2023-04-18T12:30:35.295Z,14.95
2023-04-18T12:33:10.408Z,12.82
2023-04-18T12:36:31.893Z,14.85
2023-04-18T12:39:07.654Z,14.40
2023-04-18T12:41:49.447Z,12.88
2023-04-18T12:44:55.018Z,13.48
2023-04-18T12:50:33.436Z,14.23
2023-04-18T12:56:52.926Z,15.60
2023-04-18T12:59:28.207Z,11.30
2023-04-18T13:02:06.987Z,13.40
2023-04-18T13:04:45.397Z,12.55
2023-04-18T13:07:23.195Z,15.27
2023-04-18T13:09:56.134Z,17.42
2023-04-18T13:12:30.898Z,11.43
2023-04-18T13:15:30.084Z,11.45
2023-04-18T13:18:09.554Z,10.85
2023-04-18T13:20:39.629Z,12.53
2023-04-18T13:23:13.940Z,11.25
2023-04-18T13:25:58.658Z,14.55
2023-04-18T13:32:36.815Z,12.90
2023-04-18T13:35:11.546Z,13.07
2023-04-18T13:37:41.072Z,11.85
2023-04-18T13:40:19.017Z,13.88
2023-04-18T13:43:17.326Z,11.25
2023-04-18T13:46:13.987Z,10.60
2023-04-18T13:48:46.263Z,13.23
2023-04-18T13:51:17.508Z,9.95
2023-04-18T13:53:46.305Z,9.70
2023-04-18T13:56:17.720Z,11.88
2023-04-18T13:58:46.291Z,10.77
2023-04-18T14:01:16.597Z,11.07
2023-04-18T14:03:47.169Z,9.65
2023-04-18T14:06:15.961Z,9.88
2023-04-18T14:08:49.125Z,17.13
2023-04-18T14:11:17.772Z,11.68
2023-04-18T14:13:48.184Z,11.07
2023-04-18T14:16:19.256Z,9.32
2023-04-18T14:18:48.974Z,9.00
2023-04-18T14:21:17.441Z,10.18
2023-04-18T14:23:48.142Z,10.85
2023-04-18T14:26:16.758Z,9.37
2023-04-18T14:28:48.480Z,9.60
2023-04-18T14:31:20.866Z,9.73
2023-04-18T14:33:52.243Z,10.10
2023-04-18T14:36:24.806Z,9.40
2023-04-18T14:41:59.201Z,11.52
2023-04-18T14:44:27.801Z,13.32
2023-04-18T14:46:56.633Z,13.05
2023-04-18T14:49:26.401Z,14.20
2023-04-18T14:51:54.990Z,14.53
2023-04-18T14:54:23.451Z,13.73
2023-04-18T14:57:11.184Z,13.75
2023-04-18T14:59:48.466Z,13.15
2023-04-18T15:02:21.376Z,12.07
2023-04-18T15:04:52.220Z,12.83
2023-04-18T15:07:29.599Z,14.15
2023-04-18T15:10:03.696Z,12.25
2023-04-18T15:12:32.221Z,15.02
2023-04-18T15:15:01.185Z,13.38
2023-04-18T15:17:29.829Z,13.00
2023-04-18T15:20:00.169Z,13.88
2023-04-18T15:22:28.652Z,16.02
2023-04-18T15:24:57.101Z,13.40
2023-04-18T15:27:25.568Z,13.13
2023-04-18T15:29:54.032Z,14.23
2023-04-18T15:32:23.316Z,15.52
2023-04-18T15:34:52.012Z,14.60
2023-04-18T15:37:22.087Z,12.40
2023-04-18T15:39:50.739Z,13.98
2023-04-18T15:42:19.540Z,13.17
2023-04-18T15:44:48.244Z,12.95
2023-04-18T15:47:17.218Z,12.40
2023-04-18T15:49:45.777Z,12.80
2023-04-18T15:52:16.084Z,13.43
2023-04-18T15:54:45.710Z,11.80
2023-04-18T15:57:14.134Z,16.08
2023-04-18T15:59:42.765Z,15.48
2023-04-18T16:02:11.649Z,15.70
2023-04-18T16:04:40.415Z,15.90
2023-04-18T16:07:09.175Z,13.13
2023-04-18T16:09:37.895Z,14.70
2023-04-18T16:12:09.092Z,17.63
2023-04-18T16:14:37.977Z,16.10
2023-04-18T16:17:11.367Z,14.65
2023-04-18T16:19:43.134Z,15.87
2023-04-18T16:22:15.204Z,15.02
2023-04-18T16:24:43.830Z,13.98
2023-04-18T16:27:16.043Z,15.77
2023-04-18T16:29:47.683Z,15.70
2023-04-18T16:32:16.367Z,13.83
2023-04-18T16:34:44.884Z,15.48
2023-04-18T16:37:13.391Z,14.95
2023-04-18T16:39:41.951Z,18.05
2023-04-18T16:42:19.460Z,15.80
2023-04-18T16:44:48.229Z,19.13
2023-04-18T16:47:30.809Z,16.45
2023-04-18T16:49:59.712Z,14.50
2023-04-18T16:52:28.735Z,13.27
2023-04-18T16:54:57.532Z,13.93
2023-04-18T16:57:31.564Z,14.30
2023-04-18T17:00:02.436Z,14.40
2023-04-18T17:02:32.706Z,15.75
2023-04-18T17:05:01.658Z,14.23
2023-04-18T17:07:30.457Z,16.17
2023-04-18T17:10:08.801Z,14.90
2023-04-18T17:12:42.791Z,15.90
2023-04-18T17:15:12.342Z,15.95
2023-04-18T17:17:47.110Z,14.00
2023-04-18T17:20:18.260Z,14.13
2023-04-18T17:22:49.672Z,14.00
2023-04-18T17:25:20.862Z,15.30
2023-04-18T17:27:50.521Z,14.52
2023-04-18T17:30:19.141Z,15.93
2023-04-18T17:32:50.610Z,16.52
2023-04-18T17:35:19.281Z,14.67
2023-04-18T17:37:48.795Z,18.33
2023-04-18T17:44:14.261Z,16.38
2023-04-18T17:51:28.030Z,14.87
2023-04-18T17:54:34.596Z,13.75
2023-04-18T17:57:03.835Z,15.30
2023-04-18T17:59:37.907Z,15.65
2023-04-18T19:10:21.233Z,14.13
2023-04-18T19:17:56.616Z,14.38
2023-04-18T19:22:25.300Z,17.00
2023-04-18T19:28:54.023Z,14.43
2023-04-18T19:31:26.460Z,34.50
2023-04-18T19:33:56.909Z,50.05
2023-04-18T19:36:27.649Z,32.03
2023-04-18T19:38:57.877Z,21.05
2023-04-18T19:41:31.159Z,24.63
2023-04-18T19:44:16.172Z,28.63
2023-04-18T19:46:54.243Z,21.40
2023-04-18T19:49:35.150Z,21.77
2023-04-18T19:52:28.168Z,17.50
2023-04-18T19:55:15.559Z,19.27
2023-04-18T19:58:45.639Z,17.25
2023-04-18T20:01:15.203Z,17.75
2023-04-18T20:03:44.709Z,23.05
2023-04-18T20:06:13.296Z,18.80
2023-04-18T20:08:43.081Z,43.20
2023-04-18T20:11:12.532Z,23.60
2023-04-18T20:13:41.511Z,18.05
2023-04-18T20:16:11.114Z,20.17
2023-04-18T20:18:41.440Z,19.00
2023-04-18T20:21:10.803Z,55.33
2023-04-18T20:23:45.308Z,29.00
2023-04-18T20:26:13.843Z,14.57
2023-04-18T20:28:42.486Z,16.08
2023-04-18T20:31:12.593Z,28.17
2023-04-18T20:33:41.394Z,16.23
2023-04-18T20:36:09.986Z,22.63
2023-04-18T20:38:40.283Z,18.35
2023-04-18T20:41:10.886Z,31.25
2023-04-18T20:43:42.940Z,22.95
2023-04-18T20:46:14.014Z,29.40
2023-04-18T20:48:43.905Z,18.48
2023-04-18T20:51:12.444Z,13.63
2023-04-18T20:53:43.490Z,24.80
2023-04-18T20:56:13.078Z,22.10
2023-04-18T20:58:41.976Z,27.27
2023-04-18T21:01:15.676Z,16.63
2023-04-18T21:03:44.414Z,13.45
2023-04-18T21:06:13.155Z,14.98
2023-04-18T21:08:41.630Z,17.30
2023-04-18T21:11:14.724Z,13.60
2023-04-18T21:13:44.381Z,24.40
2023-04-18T21:16:15.963Z,20.92
2023-04-18T21:18:44.507Z,17.98
2023-04-18T21:21:13.042Z,12.48
2023-04-18T21:23:45.065Z,12.37
2023-04-18T21:26:23.235Z,12.55
2023-04-18T21:28:56.267Z,12.10
2023-04-18T21:31:25.003Z,13.43
2023-04-18T21:33:54.417Z,12.85
2023-04-18T21:36:22.908Z,14.07
2023-04-18T21:38:55.658Z,12.93
2023-04-18T21:41:26.311Z,13.38
2023-04-18T21:43:54.900Z,11.50
2023-04-18T21:46:23.474Z,13.30
2023-04-18T21:48:52.060Z,13.23
2023-04-18T21:51:20.637Z,13.77
2023-04-18T21:53:49.110Z,12.38
2023-04-18T21:56:17.903Z,13.73
2023-04-18T21:58:47.716Z,14.93
2023-04-18T22:01:16.265Z,14.17
2023-04-18T22:03:45.142Z,14.07
2023-04-18T22:06:13.737Z,12.90
2023-04-18T22:08:43.388Z,15.50
2023-04-18T22:11:16.325Z,15.70
2023-04-18T22:13:46.065Z,12.60
2023-04-18T22:16:17.978Z,13.70
2023-04-18T22:18:47.277Z,15.98
2023-04-18T22:21:16.047Z,12.90
2023-04-18T22:23:44.606Z,13.95
2023-04-18T22:26:14.532Z,14.23
2023-04-18T22:28:43.648Z,12.80
2023-04-18T22:31:12.332Z,13.80
2023-04-18T22:33:41.904Z,12.68
2023-04-18T22:36:10.792Z,14.15
2023-04-18T22:38:39.397Z,14.20
2023-04-18T22:41:07.971Z,13.45
2023-04-18T22:43:36.579Z,12.45
2023-04-18T22:46:05.273Z,15.00
2023-04-18T22:48:35.207Z,11.77
2023-04-18T22:51:05.197Z,13.17
2023-04-18T22:53:33.949Z,12.43
2023-04-18T22:56:02.648Z,12.98
2023-04-18T22:58:34.002Z,12.25
2023-04-18T23:01:02.671Z,13.07
2023-04-18T23:03:34.357Z,12.40
2023-04-18T23:06:03.248Z,15.27
2023-04-18T23:08:32.944Z,11.38
2023-04-18T23:11:01.567Z,12.65
2023-04-18T23:13:30.140Z,14.40
2023-04-18T23:15:58.750Z,13.17
2023-04-18T23:18:27.266Z,13.30
2023-04-18T23:20:55.821Z,11.95
2023-04-18T23:23:24.327Z,13.40
2023-04-18T23:25:53.956Z,13.52
2023-04-18T23:28:22.727Z,15.17
2023-04-18T23:30:51.347Z,12.57
2023-04-18T23:33:19.900Z,14.02
2023-04-18T23:35:48.488Z,14.63
2023-04-18T23:38:16.961Z,16.33
2023-04-18T23:40:45.556Z,13.73
2023-04-18T23:43:17.103Z,12.80
2023-04-18T23:45:45.694Z,13.20
2023-04-18T23:48:14.220Z,13.50
2023-04-18T23:50:46.982Z,14.27
2023-04-18T23:53:16.552Z,13.00
2023-04-18T23:55:45.159Z,13.68
2023-04-18T23:58:14.952Z,14.20
